sensor_id;sensor_type;location;lat;lon;timestamp;pressure;altitude;pressure_sealevel;temperature;humidity
74778;BME280;63298;53.164;8.610;2023-05-19T00:01:24;102957.97;;;12.22;63.82
74778;BME280;63298;53.164;8.610;2023-05-19T00:03:54;102962.84;;;12.20;64.53
74778;BME280;63298;53.164;8.610;2023-05-19T00:06:22;102972.59;;;12.16;63.97
74778;BME280;63298;53.164;8.610;2023-05-19T00:08:48;102966.00;;;12.17;64.20
74778;BME280;63298;53.164;8.610;2023-05-19T00:11:14;102948.66;;;12.08;64.29
74778;BME280;63298;53.164;8.610;2023-05-19T00:13:39;102953.13;;;12.09;63.98
74778;BME280;63298;53.164;8.610;2023-05-19T00:16:05;102964.88;;;12.11;64.19
74778;BME280;63298;53.164;8.610;2023-05-19T00:18:31;102961.97;;;11.98;64.83
74778;BME280;63298;53.164;8.610;2023-05-19T00:20:56;102961.19;;;11.90;64.39
74778;BME280;63298;53.164;8.610;2023-05-19T00:23:21;102955.59;;;11.83;64.49
74778;BME280;63298;53.164;8.610;2023-05-19T00:25:46;102960.84;;;11.78;64.27
74778;BME280;63298;53.164;8.610;2023-05-19T00:28:12;102959.53;;;11.74;64.29
74778;BME280;63298;53.164;8.610;2023-05-19T00:30:37;102955.91;;;11.74;64.66
74778;BME280;63298;53.164;8.610;2023-05-19T00:33:02;102959.72;;;11.73;64.45
74778;BME280;63298;53.164;8.610;2023-05-19T00:35:28;102946.78;;;11.65;64.36
74778;BME280;63298;53.164;8.610;2023-05-19T00:37:53;102963.13;;;11.75;64.67
74778;BME280;63298;53.164;8.610;2023-05-19T00:40:18;102963.13;;;11.75;64.32
74778;BME280;63298;53.164;8.610;2023-05-19T00:42:44;102948.97;;;11.69;64.19
74778;BME280;63298;53.164;8.610;2023-05-19T00:45:09;102948.78;;;11.71;64.54
74778;BME280;63298;53.164;8.610;2023-05-19T00:47:35;102956.22;;;11.70;63.96
74778;BME280;63298;53.164;8.610;2023-05-19T00:50:00;102930.16;;;11.58;64.11
74778;BME280;63298;53.164;8.610;2023-05-19T00:52:26;102938.03;;;11.61;63.69
74778;BME280;63298;53.164;8.610;2023-05-19T00:54:52;102958.34;;;11.68;63.76
74778;BME280;63298;53.164;8.610;2023-05-19T00:57:18;102954.50;;;11.69;64.34
74778;BME280;63298;53.164;8.610;2023-05-19T00:59:43;102940.41;;;11.64;64.05
74778;BME280;63298;53.164;8.610;2023-05-19T01:02:09;102948.16;;;11.69;63.97
74778;BME280;63298;53.164;8.610;2023-05-19T01:04:35;102949.78;;;11.63;63.49
74778;BME280;63298;53.164;8.610;2023-05-19T01:07:02;102946.72;;;11.58;64.02
74778;BME280;63298;53.164;8.610;2023-05-19T01:09:27;102952.25;;;11.58;63.80
74778;BME280;63298;53.164;8.610;2023-05-19T01:11:52;102958.66;;;11.44;64.61
74778;BME280;63298;53.164;8.610;2023-05-19T01:14:18;102939.66;;;11.26;64.09
74778;BME280;63298;53.164;8.610;2023-05-19T01:17:03;102946.22;;;11.11;66.15
74778;BME280;63298;53.164;8.610;2023-05-19T01:19:49;102954.31;;;10.98;65.16
74778;BME280;63298;53.164;8.610;2023-05-19T01:30:36;102957.44;;;10.80;64.84
74778;BME280;63298;53.164;8.610;2023-05-19T01:33:06;102946.94;;;10.75;64.32
74778;BME280;63298;53.164;8.610;2023-05-19T01:35:34;102951.06;;;10.79;64.63
74778;BME280;63298;53.164;8.610;2023-05-19T01:38:01;102948.47;;;10.78;64.06
74778;BME280;63298;53.164;8.610;2023-05-19T01:40:28;102944.84;;;10.77;63.89
74778;BME280;63298;53.164;8.610;2023-05-19T01:42:56;102947.69;;;10.69;64.41
74778;BME280;63298;53.164;8.610;2023-05-19T01:45:22;102938.91;;;10.66;64.11
74778;BME280;63298;53.164;8.610;2023-05-19T01:47:50;102938.59;;;10.61;65.02
74778;BME280;63298;53.164;8.610;2023-05-19T01:50:16;102941.34;;;10.61;63.98
74778;BME280;63298;53.164;8.610;2023-05-19T01:52:41;102942.44;;;10.60;64.27
74778;BME280;63298;53.164;8.610;2023-05-19T01:55:07;102950.19;;;10.56;64.03
74778;BME280;63298;53.164;8.610;2023-05-19T02:03:41;102957.81;;;10.54;63.86
74778;BME280;63298;53.164;8.610;2023-05-19T02:06:17;102960.41;;;10.56;63.97
74778;BME280;63298;53.164;8.610;2023-05-19T02:09:11;102956.19;;;10.45;64.62
74778;BME280;63298;53.164;8.610;2023-05-19T02:11:42;102950.09;;;10.50;63.93
74778;BME280;63298;53.164;8.610;2023-05-19T02:14:15;102949.25;;;10.49;64.11
74778;BME280;63298;53.164;8.610;2023-05-19T02:16:44;102947.13;;;10.51;64.01
74778;BME280;63298;53.164;8.610;2023-05-19T02:19:30;102949.84;;;10.59;63.90
74778;BME280;63298;53.164;8.610;2023-05-19T02:21:56;102946.69;;;10.62;63.97
74778;BME280;63298;53.164;8.610;2023-05-19T02:24:22;102944.81;;;10.63;63.00
74778;BME280;63298;53.164;8.610;2023-05-19T02:26:50;102943.59;;;10.65;63.54
74778;BME280;63298;53.164;8.610;2023-05-19T02:29:16;102946.66;;;10.70;63.87
74778;BME280;63298;53.164;8.610;2023-05-19T02:31:41;102941.13;;;10.70;63.37
74778;BME280;63298;53.164;8.610;2023-05-19T02:34:06;102937.69;;;10.68;62.68
74778;BME280;63298;53.164;8.610;2023-05-19T02:36:33;102945.78;;;10.70;62.65
74778;BME280;63298;53.164;8.610;2023-05-19T02:38:59;102937.00;;;10.66;63.29
74778;BME280;63298;53.164;8.610;2023-05-19T02:41:24;102939.75;;;10.66;63.10
74778;BME280;63298;53.164;8.610;2023-05-19T02:43:50;102938.25;;;10.64;63.32
74778;BME280;63298;53.164;8.610;2023-05-19T02:46:15;102932.59;;;10.57;62.54
74778;BME280;63298;53.164;8.610;2023-05-19T02:48:41;102944.03;;;10.54;62.61
74778;BME280;63298;53.164;8.610;2023-05-19T02:51:06;102941.44;;;10.53;63.13
74778;BME280;63298;53.164;8.610;2023-05-19T02:53:31;102940.22;;;10.55;62.85
74778;BME280;63298;53.164;8.610;2023-05-19T02:55:57;102943.03;;;10.47;62.82
74778;BME280;63298;53.164;8.610;2023-05-19T02:58:22;102945.38;;;10.35;62.46
74778;BME280;63298;53.164;8.610;2023-05-19T03:00:48;102945.81;;;10.24;62.86
74778;BME280;63298;53.164;8.610;2023-05-19T03:03:13;102947.38;;;10.19;63.15
74778;BME280;63298;53.164;8.610;2023-05-19T03:05:39;102936.94;;;10.06;63.13
74778;BME280;63298;53.164;8.610;2023-05-19T03:08:05;102948.47;;;10.02;63.83
74778;BME280;63298;53.164;8.610;2023-05-19T03:10:30;102943.53;;;9.97;64.08
74778;BME280;63298;53.164;8.610;2023-05-19T03:12:55;102949.25;;;9.95;64.15
74778;BME280;63298;53.164;8.610;2023-05-19T03:15:21;102937.53;;;9.93;63.83
74778;BME280;63298;53.164;8.610;2023-05-19T03:17:46;102939.25;;;9.94;64.10
74778;BME280;63298;53.164;8.610;2023-05-19T03:20:11;102920.66;;;9.88;63.33
74778;BME280;63298;53.164;8.610;2023-05-19T03:22:37;102936.81;;;10.00;62.97
74778;BME280;63298;53.164;8.610;2023-05-19T03:25:02;102940.41;;;10.00;62.75
74778;BME280;63298;53.164;8.610;2023-05-19T03:27:28;102918.72;;;9.97;63.16
74778;BME280;63298;53.164;8.610;2023-05-19T03:29:53;102930.44;;;9.99;63.83
74778;BME280;63298;53.164;8.610;2023-05-19T03:32:18;102932.50;;;9.97;63.80
74778;BME280;63298;53.164;8.610;2023-05-19T03:34:44;102926.13;;;9.96;63.77
74778;BME280;63298;53.164;8.610;2023-05-19T03:37:09;102930.97;;;9.94;63.25
74778;BME280;63298;53.164;8.610;2023-05-19T03:39:34;102931.53;;;9.90;63.11
74778;BME280;63298;53.164;8.610;2023-05-19T03:42:00;102938.25;;;9.87;63.04
74778;BME280;63298;53.164;8.610;2023-05-19T03:44:25;102937.75;;;9.84;63.02
74778;BME280;63298;53.164;8.610;2023-05-19T03:46:50;102934.84;;;9.77;62.98
74778;BME280;63298;53.164;8.610;2023-05-19T03:49:16;102941.75;;;9.73;63.67
74778;BME280;63298;53.164;8.610;2023-05-19T03:51:41;102944.34;;;9.75;63.60
74778;BME280;63298;53.164;8.610;2023-05-19T03:54:06;102950.34;;;9.78;63.73
74778;BME280;63298;53.164;8.610;2023-05-19T03:56:32;102951.69;;;9.82;62.89
74778;BME280;63298;53.164;8.610;2023-05-19T03:58:57;102933.47;;;9.81;63.67
74778;BME280;63298;53.164;8.610;2023-05-19T04:01:22;102945.84;;;9.85;63.90
74778;BME280;63298;53.164;8.610;2023-05-19T04:03:48;102939.81;;;9.82;62.70
74778;BME280;63298;53.164;8.610;2023-05-19T04:06:13;102948.09;;;9.82;63.28
74778;BME280;63298;53.164;8.610;2023-05-19T04:08:38;102946.56;;;9.79;63.00
74778;BME280;63298;53.164;8.610;2023-05-19T04:11:04;102954.28;;;9.84;63.17
74778;BME280;63298;53.164;8.610;2023-05-19T04:13:31;102951.34;;;9.85;63.08
74778;BME280;63298;53.164;8.610;2023-05-19T04:15:57;102953.56;;;9.90;62.93
74778;BME280;63298;53.164;8.610;2023-05-19T04:18:23;102955.16;;;9.84;63.11
74778;BME280;63298;53.164;8.610;2023-05-19T04:20:48;102952.38;;;9.84;63.27
74778;BME280;63298;53.164;8.610;2023-05-19T04:23:14;102954.97;;;9.86;62.66
74778;BME280;63298;53.164;8.610;2023-05-19T04:25:39;102957.19;;;9.90;63.48
74778;BME280;63298;53.164;8.610;2023-05-19T04:28:05;102954.75;;;9.95;63.00
74778;BME280;63298;53.164;8.610;2023-05-19T04:30:30;102938.38;;;9.94;63.10
74778;BME280;63298;53.164;8.610;2023-05-19T04:32:55;102948.53;;;9.93;63.54
74778;BME280;63298;53.164;8.610;2023-05-19T04:35:21;102946.34;;;9.89;63.93
74778;BME280;63298;53.164;8.610;2023-05-19T04:37:46;102938.34;;;9.71;63.65
74778;BME280;63298;53.164;8.610;2023-05-19T04:40:12;102953.97;;;9.79;63.42
74778;BME280;63298;53.164;8.610;2023-05-19T04:42:37;102957.59;;;9.79;63.15
74778;BME280;63298;53.164;8.610;2023-05-19T04:45:03;102958.28;;;9.81;63.70
74778;BME280;63298;53.164;8.610;2023-05-19T04:47:28;102953.44;;;9.83;63.79
74778;BME280;63298;53.164;8.610;2023-05-19T04:49:53;102947.06;;;9.83;63.35
74778;BME280;63298;53.164;8.610;2023-05-19T04:52:19;102951.53;;;9.84;63.68
74778;BME280;63298;53.164;8.610;2023-05-19T04:54:44;102951.84;;;9.89;63.47
74778;BME280;63298;53.164;8.610;2023-05-19T04:57:09;102942.88;;;9.95;63.02
74778;BME280;63298;53.164;8.610;2023-05-19T04:59:34;102949.34;;;10.02;62.58
74778;BME280;63298;53.164;8.610;2023-05-19T05:02:00;102949.66;;;10.07;62.29
74778;BME280;63298;53.164;8.610;2023-05-19T05:04:25;102946.03;;;10.07;62.62
74778;BME280;63298;53.164;8.610;2023-05-19T05:06:51;102946.03;;;10.07;62.20
74778;BME280;63298;53.164;8.610;2023-05-19T05:09:17;102948.81;;;10.07;62.89
74778;BME280;63298;53.164;8.610;2023-05-19T05:11:43;102942.81;;;10.03;63.60
74778;BME280;63298;53.164;8.610;2023-05-19T05:14:09;102945.72;;;10.02;63.23
74778;BME280;63298;53.164;8.610;2023-05-19T05:16:35;102953.34;;;10.00;63.41
74778;BME280;63298;53.164;8.610;2023-05-19T05:19:01;102952.34;;;9.92;63.18
74778;BME280;63298;53.164;8.610;2023-05-19T05:21:27;102948.91;;;9.90;63.00
74778;BME280;63298;53.164;8.610;2023-05-19T05:23:53;102957.38;;;9.89;64.17
74778;BME280;63298;53.164;8.610;2023-05-19T05:26:20;102957.00;;;9.92;63.87
74778;BME280;63298;53.164;8.610;2023-05-19T05:28:45;102958.84;;;10.00;63.61
74778;BME280;63298;53.164;8.610;2023-05-19T05:31:10;102956.03;;;10.08;63.69
74778;BME280;63298;53.164;8.610;2023-05-19T05:33:36;102954.47;;;10.13;62.93
74778;BME280;63298;53.164;8.610;2023-05-19T05:36:02;102961.34;;;10.17;63.58
74778;BME280;63298;53.164;8.610;2023-05-19T05:38:28;102946.34;;;10.12;62.75
74778;BME280;63298;53.164;8.610;2023-05-19T05:40:53;102956.53;;;10.19;63.62
74778;BME280;63298;53.164;8.610;2023-05-19T05:43:18;102950.84;;;10.21;62.99
74778;BME280;63298;53.164;8.610;2023-05-19T05:45:44;102953.22;;;10.24;63.28
74778;BME280;63298;53.164;8.610;2023-05-19T05:48:09;102960.94;;;10.28;63.77
74778;BME280;63298;53.164;8.610;2023-05-19T05:50:35;102951.16;;;10.26;63.41
74778;BME280;63298;53.164;8.610;2023-05-19T05:53:01;102951.56;;;10.37;63.15
74778;BME280;63298;53.164;8.610;2023-05-19T05:55:27;102950.34;;;10.40;62.82
74778;BME280;63298;53.164;8.610;2023-05-19T05:57:53;102955.41;;;10.51;63.60
74778;BME280;63298;53.164;8.610;2023-05-19T06:00:19;102953.25;;;10.61;62.49
74778;BME280;63298;53.164;8.610;2023-05-19T06:02:45;102945.66;;;10.63;63.94
74778;BME280;63298;53.164;8.610;2023-05-19T06:05:10;102948.91;;;10.67;63.96
74778;BME280;63298;53.164;8.610;2023-05-19T06:07:35;102940.75;;;10.73;63.60
74778;BME280;63298;53.164;8.610;2023-05-19T06:10:01;102948.38;;;10.86;63.28
74778;BME280;63298;53.164;8.610;2023-05-19T06:12:26;102935.94;;;10.90;62.78
74778;BME280;63298;53.164;8.610;2023-05-19T06:14:52;102946.22;;;10.96;63.97
74778;BME280;63298;53.164;8.610;2023-05-19T06:17:17;102943.38;;;11.04;63.59
74778;BME280;63298;53.164;8.610;2023-05-19T06:19:42;102937.00;;;11.18;62.72
74778;BME280;63298;53.164;8.610;2023-05-19T06:22:07;102940.72;;;11.25;63.08
74778;BME280;63298;53.164;8.610;2023-05-19T06:24:33;102941.22;;;11.29;63.38
74778;BME280;63298;53.164;8.610;2023-05-19T06:26:58;102939.38;;;11.36;63.45
74778;BME280;63298;53.164;8.610;2023-05-19T06:29:23;102934.53;;;11.53;62.99
74778;BME280;63298;53.164;8.610;2023-05-19T06:31:49;102938.31;;;11.66;63.12
74778;BME280;63298;53.164;8.610;2023-05-19T06:34:14;102931.88;;;11.74;62.44
74778;BME280;63298;53.164;8.610;2023-05-19T06:36:39;102939.88;;;11.84;62.29
74778;BME280;63298;53.164;8.610;2023-05-19T06:39:04;102943.41;;;11.99;62.77
74778;BME280;63298;53.164;8.610;2023-05-19T06:41:30;102913.66;;;12.01;62.28
74778;BME280;63298;53.164;8.610;2023-05-19T06:43:55;102927.91;;;12.19;61.68
74778;BME280;63298;53.164;8.610;2023-05-19T06:46:20;102930.25;;;12.37;61.72
74778;BME280;63298;53.164;8.610;2023-05-19T06:48:46;102939.13;;;12.53;61.65
74778;BME280;63298;53.164;8.610;2023-05-19T06:51:11;102946.69;;;12.66;61.53
74778;BME280;63298;53.164;8.610;2023-05-19T06:53:36;102940.41;;;12.79;61.30
74778;BME280;63298;53.164;8.610;2023-05-19T06:56:02;102947.75;;;12.93;60.92
74778;BME280;63298;53.164;8.610;2023-05-19T06:58:27;102940.13;;;12.95;60.77
74778;BME280;63298;53.164;8.610;2023-05-19T07:00:52;102962.47;;;13.15;60.66
74778;BME280;63298;53.164;8.610;2023-05-19T07:03:18;102951.28;;;13.29;60.46
74778;BME280;63298;53.164;8.610;2023-05-19T07:05:43;102946.88;;;13.42;60.09
74778;BME280;63298;53.164;8.610;2023-05-19T07:08:08;102942.47;;;13.54;59.91
74778;BME280;63298;53.164;8.610;2023-05-19T07:10:34;102943.41;;;13.74;60.03
74778;BME280;63298;53.164;8.610;2023-05-19T07:12:59;102948.38;;;13.85;59.53
74778;BME280;63298;53.164;8.610;2023-05-19T07:15:24;102933.25;;;13.94;59.49
74778;BME280;63298;53.164;8.610;2023-05-19T07:17:50;102937.78;;;14.08;59.12
74778;BME280;63298;53.164;8.610;2023-05-19T07:20:15;102934.81;;;14.16;59.19
74778;BME280;63298;53.164;8.610;2023-05-19T07:22:40;102933.13;;;14.28;58.95
74778;BME280;63298;53.164;8.610;2023-05-19T07:25:06;102940.47;;;14.49;58.67
74778;BME280;63298;53.164;8.610;2023-05-19T07:27:32;102938.56;;;14.63;58.25
74778;BME280;63298;53.164;8.610;2023-05-19T07:29:57;102921.25;;;14.67;58.21
74778;BME280;63298;53.164;8.610;2023-05-19T07:32:23;102937.94;;;14.87;58.12
74778;BME280;63298;53.164;8.610;2023-05-19T07:34:48;102919.97;;;14.96;57.30
74778;BME280;63298;53.164;8.610;2023-05-19T07:37:14;102936.00;;;15.14;57.85
74778;BME280;63298;53.164;8.610;2023-05-19T07:39:39;102934.44;;;15.31;57.18
74778;BME280;63298;53.164;8.610;2023-05-19T07:42:04;102934.84;;;15.41;56.82
74778;BME280;63298;53.164;8.610;2023-05-19T07:44:30;102916.66;;;15.45;56.69
74778;BME280;63298;53.164;8.610;2023-05-19T07:46:55;102924.09;;;15.71;56.55
74778;BME280;63298;53.164;8.610;2023-05-19T07:49:21;102927.91;;;15.83;56.14
74778;BME280;63298;53.164;8.610;2023-05-19T07:51:46;102926.56;;;15.92;56.24
74778;BME280;63298;53.164;8.610;2023-05-19T07:54:12;102914.38;;;15.93;56.01
74778;BME280;63298;53.164;8.610;2023-05-19T07:56:37;102921.31;;;16.16;55.72
74778;BME280;63298;53.164;8.610;2023-05-19T07:59:02;102914.38;;;16.25;55.52
74778;BME280;63298;53.164;8.610;2023-05-19T08:01:29;102924.09;;;16.47;55.38
74778;BME280;63298;53.164;8.610;2023-05-19T08:03:54;102902.88;;;16.46;55.33
74778;BME280;63298;53.164;8.610;2023-05-19T08:06:19;102910.09;;;16.60;54.91
74778;BME280;63298;53.164;8.610;2023-05-19T08:08:44;102914.09;;;16.71;54.96
74778;BME280;63298;53.164;8.610;2023-05-19T08:11:10;102912.03;;;16.84;55.06
74778;BME280;63298;53.164;8.610;2023-05-19T08:13:35;102912.75;;;16.98;54.68
74778;BME280;63298;53.164;8.610;2023-05-19T08:16:00;102900.16;;;17.14;54.47
74778;BME280;63298;53.164;8.610;2023-05-19T08:18:26;102886.38;;;17.19;54.28
74778;BME280;63298;53.164;8.610;2023-05-19T08:20:51;102899.25;;;17.38;53.89
74778;BME280;63298;53.164;8.610;2023-05-19T08:23:16;102896.00;;;17.41;54.07
74778;BME280;63298;53.164;8.610;2023-05-19T08:25:42;102910.03;;;17.53;52.88
74778;BME280;63298;53.164;8.610;2023-05-19T08:28:09;102903.31;;;17.60;52.98
74778;BME280;63298;53.164;8.610;2023-05-19T08:30:34;102913.69;;;17.53;51.97
74778;BME280;63298;53.164;8.610;2023-05-19T08:32:59;102910.41;;;17.56;52.71
74778;BME280;63298;53.164;8.610;2023-05-19T08:35:25;102901.50;;;17.30;50.85
74778;BME280;63298;53.164;8.610;2023-05-19T08:37:50;102890.72;;;17.15;51.94
74778;BME280;63298;53.164;8.610;2023-05-19T08:40:16;102909.72;;;17.24;51.77
74778;BME280;63298;53.164;8.610;2023-05-19T08:42:44;102903.13;;;17.19;51.90
74778;BME280;63298;53.164;8.610;2023-05-19T08:45:09;102896.16;;;17.28;52.26
74778;BME280;63298;53.164;8.610;2023-05-19T08:47:35;102873.59;;;17.30;51.61
74778;BME280;63298;53.164;8.610;2023-05-19T08:50:05;102874.78;;;17.40;51.14
74778;BME280;63298;53.164;8.610;2023-05-19T08:52:58;102885.63;;;17.66;51.18
74778;BME280;63298;53.164;8.610;2023-05-19T08:55:30;102874.66;;;17.83;51.15
74778;BME280;63298;53.164;8.610;2023-05-19T08:58:00;102874.38;;;18.03;50.95
74778;BME280;63298;53.164;8.610;2023-05-19T09:00:25;102859.47;;;18.09;50.75
74778;BME280;63298;53.164;8.610;2023-05-19T09:02:52;102862.16;;;18.16;50.17
74778;BME280;63298;53.164;8.610;2023-05-19T09:05:17;102860.75;;;18.25;50.19
74778;BME280;63298;53.164;8.610;2023-05-19T09:07:44;102876.53;;;18.31;49.69
74778;BME280;63298;53.164;8.610;2023-05-19T09:10:09;102867.22;;;18.37;49.61
74778;BME280;63298;53.164;8.610;2023-05-19T09:12:34;102870.75;;;18.44;49.57
74778;BME280;63298;53.164;8.610;2023-05-19T09:15:00;102872.22;;;18.46;48.39
74778;BME280;63298;53.164;8.610;2023-05-19T09:17:26;102864.91;;;18.45;48.63
74778;BME280;63298;53.164;8.610;2023-05-19T09:19:51;102860.31;;;18.51;48.94
74778;BME280;63298;53.164;8.610;2023-05-19T09:22:17;102826.28;;;18.42;48.55
74778;BME280;63298;53.164;8.610;2023-05-19T09:24:42;102842.50;;;18.64;49.20
74778;BME280;63298;53.164;8.610;2023-05-19T09:27:07;102860.63;;;18.96;48.98
74778;BME280;63298;53.164;8.610;2023-05-19T09:29:33;102868.41;;;19.17;48.47
74778;BME280;63298;53.164;8.610;2023-05-19T09:31:58;102850.84;;;19.33;48.00
74778;BME280;63298;53.164;8.610;2023-05-19T09:34:23;102836.34;;;19.36;47.48
74778;BME280;63298;53.164;8.610;2023-05-19T09:36:49;102862.50;;;19.42;46.21
74778;BME280;63298;53.164;8.610;2023-05-19T09:39:15;102851.09;;;19.32;47.09
74778;BME280;63298;53.164;8.610;2023-05-19T09:41:43;102848.53;;;19.42;46.76
74778;BME280;63298;53.164;8.610;2023-05-19T09:44:12;102839.00;;;19.55;45.92
74778;BME280;63298;53.164;8.610;2023-05-19T09:46:37;102830.59;;;19.55;46.37
74778;BME280;63298;53.164;8.610;2023-05-19T09:49:09;102842.31;;;19.80;46.16
74778;BME280;63298;53.164;8.610;2023-05-19T09:51:40;102829.13;;;19.92;45.49
74778;BME280;63298;53.164;8.610;2023-05-19T09:54:06;102813.84;;;19.83;45.04
74778;BME280;63298;53.164;8.610;2023-05-19T09:56:34;102827.19;;;19.93;45.05
74778;BME280;63298;53.164;8.610;2023-05-19T09:59:02;102822.13;;;20.06;44.87
74778;BME280;63298;53.164;8.610;2023-05-19T10:01:28;102821.22;;;20.17;45.02
74778;BME280;63298;53.164;8.610;2023-05-19T10:03:54;102811.19;;;20.21;44.49
74778;BME280;63298;53.164;8.610;2023-05-19T10:06:20;102791.97;;;20.13;43.42
74778;BME280;63298;53.164;8.610;2023-05-19T10:08:46;102815.97;;;20.38;44.28
74778;BME280;63298;53.164;8.610;2023-05-19T10:11:14;102818.25;;;20.57;43.97
74778;BME280;63298;53.164;8.610;2023-05-19T10:13:41;102815.13;;;20.54;43.90
74778;BME280;63298;53.164;8.610;2023-05-19T10:16:08;102811.22;;;20.55;43.68
74778;BME280;63298;53.164;8.610;2023-05-19T10:18:33;102810.53;;;20.64;43.47
74778;BME280;63298;53.164;8.610;2023-05-19T10:21:01;102801.75;;;20.78;43.16
74778;BME280;63298;53.164;8.610;2023-05-19T10:23:26;102800.78;;;20.89;42.79
74778;BME280;63298;53.164;8.610;2023-05-19T10:25:54;102795.78;;;21.12;42.73
74778;BME280;63298;53.164;8.610;2023-05-19T10:28:21;102789.06;;;21.30;42.64
74778;BME280;63298;53.164;8.610;2023-05-19T10:30:52;102809.28;;;21.54;41.07
74778;BME280;63298;53.164;8.610;2023-05-19T10:33:19;102805.38;;;21.55;41.65
74778;BME280;63298;53.164;8.610;2023-05-19T10:36:14;102794.25;;;21.65;40.66
74778;BME280;63298;53.164;8.610;2023-05-19T10:39:04;102792.69;;;21.74;41.61
74778;BME280;63298;53.164;8.610;2023-05-19T10:46:51;102793.53;;;21.09;40.46
74778;BME280;63298;53.164;8.610;2023-05-19T10:49:20;102789.75;;;20.82;37.68
74778;BME280;63298;53.164;8.610;2023-05-19T10:51:45;102779.28;;;20.56;39.22
74778;BME280;63298;53.164;8.610;2023-05-19T10:54:10;102782.31;;;20.38;39.37
74778;BME280;63298;53.164;8.610;2023-05-19T10:56:38;102763.56;;;19.93;39.93
74778;BME280;63298;53.164;8.610;2023-05-19T10:59:03;102783.59;;;19.85;40.01
74778;BME280;63298;53.164;8.610;2023-05-19T11:01:33;102780.59;;;19.75;39.22
74778;BME280;63298;53.164;8.610;2023-05-19T11:04:07;102780.59;;;19.75;39.04
74778;BME280;63298;53.164;8.610;2023-05-19T11:06:33;102770.97;;;19.99;39.87
74778;BME280;63298;53.164;8.610;2023-05-19T11:09:09;102770.66;;;20.29;39.11
74778;BME280;63298;53.164;8.610;2023-05-19T11:11:46;102779.44;;;20.66;38.98
74778;BME280;63298;53.164;8.610;2023-05-19T11:14:20;102780.91;;;20.90;39.26
74778;BME280;63298;53.164;8.610;2023-05-19T11:16:47;102773.28;;;20.86;38.60
74778;BME280;63298;53.164;8.610;2023-05-19T11:19:37;102765.56;;;20.76;37.37
74778;BME280;63298;53.164;8.610;2023-05-19T11:22:12;102763.94;;;20.80;39.18
74778;BME280;63298;53.164;8.610;2023-05-19T11:24:45;102761.25;;;20.90;38.93
74778;BME280;63298;53.164;8.610;2023-05-19T11:29:49;102766.72;;;20.80;38.79
74778;BME280;63298;53.164;8.610;2023-05-19T11:32:15;102760.56;;;20.45;38.63
74778;BME280;63298;53.164;8.610;2023-05-19T11:34:43;102758.22;;;20.37;38.77
74778;BME280;63298;53.164;8.610;2023-05-19T11:37:08;102766.03;;;20.51;38.79
74778;BME280;63298;53.164;8.610;2023-05-19T11:39:34;102762.94;;;20.53;38.28
74778;BME280;63298;53.164;8.610;2023-05-19T11:41:59;102754.19;;;20.49;37.89
74778;BME280;63298;53.164;8.610;2023-05-19T11:44:25;102753.16;;;20.55;38.49
74778;BME280;63298;53.164;8.610;2023-05-19T11:46:50;102762.06;;;20.69;38.35
74778;BME280;63298;53.164;8.610;2023-05-19T11:49:15;102755.13;;;20.38;37.63
74778;BME280;63298;53.164;8.610;2023-05-19T11:51:45;102753.75;;;20.07;37.41
74778;BME280;63298;53.164;8.610;2023-05-19T11:54:11;102756.72;;;20.01;38.58
74778;BME280;63298;53.164;8.610;2023-05-19T11:56:42;102757.66;;;20.23;38.02
74778;BME280;63298;53.164;8.610;2023-05-19T11:59:08;102755.28;;;20.48;38.61
74778;BME280;63298;53.164;8.610;2023-05-19T12:01:34;102745.63;;;20.39;38.39
74778;BME280;63298;53.164;8.610;2023-05-19T12:04:00;102754.59;;;20.58;38.10
74778;BME280;63298;53.164;8.610;2023-05-19T12:06:27;102752.56;;;20.70;38.69
74778;BME280;63298;53.164;8.610;2023-05-19T12:08:55;102751.88;;;21.01;38.34
74778;BME280;63298;53.164;8.610;2023-05-19T12:11:22;102748.91;;;21.30;38.13
74778;BME280;63298;53.164;8.610;2023-05-19T12:13:48;102748.03;;;21.51;36.59
74778;BME280;63298;53.164;8.610;2023-05-19T12:16:13;102734.97;;;21.67;37.49
74778;BME280;63298;53.164;8.610;2023-05-19T12:18:39;102739.56;;;22.00;36.92
74778;BME280;63298;53.164;8.610;2023-05-19T12:21:04;102744.00;;;22.27;36.62
74778;BME280;63298;53.164;8.610;2023-05-19T12:23:31;102743.75;;;22.29;35.92
74778;BME280;63298;53.164;8.610;2023-05-19T12:26:00;102738.59;;;21.89;35.04
74778;BME280;63298;53.164;8.610;2023-05-19T12:28:28;102727.97;;;21.42;34.95
74778;BME280;63298;53.164;8.610;2023-05-19T12:30:55;102738.13;;;21.22;36.07
74778;BME280;63298;53.164;8.610;2023-05-19T12:33:20;102725.50;;;21.02;35.74
74778;BME280;63298;53.164;8.610;2023-05-19T12:35:45;102713.81;;;21.10;36.34
74778;BME280;63298;53.164;8.610;2023-05-19T12:38:13;102714.09;;;21.31;36.61
74778;BME280;63298;53.164;8.610;2023-05-19T12:40:38;102717.06;;;21.73;36.41
74778;BME280;63298;53.164;8.610;2023-05-19T12:43:04;102715.38;;;21.99;36.12
74778;BME280;63298;53.164;8.610;2023-05-19T12:45:36;102721.25;;;22.29;35.55
74778;BME280;63298;53.164;8.610;2023-05-19T12:48:04;102722.53;;;22.48;35.67
74778;BME280;63298;53.164;8.610;2023-05-19T12:50:30;102725.28;;;22.43;34.48
74778;BME280;63298;53.164;8.610;2023-05-19T12:52:55;102718.47;;;22.34;34.74
74778;BME280;63298;53.164;8.610;2023-05-19T12:55:21;102710.09;;;22.39;35.11
74778;BME280;63298;53.164;8.610;2023-05-19T12:57:51;102721.50;;;22.64;34.87
74778;BME280;63298;53.164;8.610;2023-05-19T13:00:18;102726.72;;;22.88;34.92
74778;BME280;63298;53.164;8.610;2023-05-19T13:03:06;102716.38;;;23.03;31.65
74778;BME280;63298;53.164;8.610;2023-05-19T13:05:35;102712.06;;;22.86;32.97
74778;BME280;63298;53.164;8.610;2023-05-19T13:08:05;102716.66;;;22.60;33.30
74778;BME280;63298;53.164;8.610;2023-05-19T13:10:30;102700.75;;;22.33;34.22
74778;BME280;63298;53.164;8.610;2023-05-19T13:12:57;102710.41;;;22.11;34.35